createdAt,value
2023-11-26T00:02:54.407Z,1.70
2023-11-26T00:07:57.789Z,1.50
2023-11-26T00:13:00.626Z,1.20
2023-11-26T00:18:03.542Z,1.40
2023-11-26T00:23:08.158Z,1.50
2023-11-26T00:28:11.438Z,1.80
2023-11-26T00:33:14.294Z,1.50
2023-11-26T00:38:17.728Z,1.50
2023-11-26T00:43:21.075Z,1.20
2023-11-26T00:48:24.114Z,1.00
2023-11-26T00:53:28.996Z,1.00
2023-11-26T00:58:31.762Z,1.00
2023-11-26T01:03:34.603Z,1.50
2023-11-26T01:08:37.384Z,1.30
2023-11-26T01:13:41.375Z,1.20
2023-11-26T01:18:44.272Z,1.10
2023-11-26T01:23:47.229Z,1.00
2023-11-26T01:28:50.283Z,1.20
2023-11-26T01:33:53.111Z,0.90
2023-11-26T01:38:56.401Z,1.10
2023-11-26T01:43:59.309Z,1.20
2023-11-26T01:49:02.065Z,1.00
2023-11-26T01:54:05.240Z,1.30
2023-11-26T01:59:08.504Z,1.20
2023-11-26T02:04:11.298Z,0.90
2023-11-26T02:09:14.521Z,0.90
2023-11-26T02:14:17.549Z,0.60
2023-11-26T02:19:33.037Z,0.80
2023-11-26T02:24:55.916Z,1.10
2023-11-26T02:29:58.640Z,1.10
2023-11-26T02:35:01.462Z,1.20
2023-11-26T02:40:06.573Z,0.90
2023-11-26T02:45:09.925Z,1.00
2023-11-26T02:50:12.776Z,1.40
2023-11-26T02:55:15.765Z,1.40
2023-11-26T03:00:21.770Z,1.10
2023-11-26T03:05:24.681Z,1.10
2023-11-26T03:10:46.101Z,1.20
2023-11-26T03:15:51.763Z,1.20
2023-11-26T03:20:57.083Z,1.40
2023-11-26T03:25:59.991Z,1.60
2023-11-26T03:31:02.944Z,1.90
2023-11-26T03:36:07.168Z,1.60
2023-11-26T03:41:09.955Z,1.50
2023-11-26T03:46:12.965Z,1.50
2023-11-26T03:51:19.673Z,1.50
2023-11-26T03:56:22.702Z,1.20
2023-11-26T04:01:25.567Z,1.50
2023-11-26T04:06:28.416Z,1.50
2023-11-26T04:11:31.154Z,1.20
2023-11-26T04:16:33.957Z,1.50
2023-11-26T04:21:36.678Z,1.90
2023-11-26T04:26:45.998Z,1.40
2023-11-26T04:31:49.736Z,1.80
2023-11-26T04:36:52.542Z,1.60
2023-11-26T04:41:55.301Z,2.10
2023-11-26T04:46:58.091Z,2.30
2023-11-26T04:52:00.904Z,2.60
2023-11-26T04:57:04.077Z,2.30
2023-11-26T05:02:11.315Z,2.40
2023-11-26T05:07:14.453Z,2.30
2023-11-26T05:12:17.231Z,2.80
2023-11-26T05:17:20.036Z,2.80
2023-11-26T05:22:23.765Z,2.30
2023-11-26T05:27:26.515Z,2.40
2023-11-26T05:32:31.984Z,2.50
2023-11-26T05:37:34.916Z,4.10
2023-11-26T05:42:37.821Z,4.20
2023-11-26T05:47:40.719Z,3.10
2023-11-26T05:52:44.107Z,3.10
2023-11-26T05:57:47.039Z,3.10
2023-11-26T06:02:52.178Z,2.60
2023-11-26T06:07:55.051Z,2.00
2023-11-26T06:12:57.911Z,2.40
2023-11-26T06:18:00.668Z,1.00
2023-11-26T06:23:03.471Z,1.10
2023-11-26T06:28:06.334Z,1.10
2023-11-26T06:33:09.231Z,1.60
2023-11-26T06:38:11.969Z,1.10
2023-11-26T06:43:14.729Z,1.60
2023-11-26T06:48:17.454Z,1.70
2023-11-26T06:53:20.252Z,1.50
2023-11-26T06:58:22.995Z,1.80
2023-11-26T07:03:26.590Z,1.60
2023-11-26T07:08:29.710Z,1.40
2023-11-26T07:13:33.312Z,1.60
2023-11-26T07:18:36.100Z,1.70
2023-11-26T07:23:40.483Z,1.60
2023-11-26T07:28:43.259Z,1.80
2023-11-26T07:33:49.482Z,1.50
2023-11-26T07:43:56.756Z,1.50
2023-11-26T07:48:59.517Z,1.20
2023-11-26T07:54:02.225Z,1.60
2023-11-26T07:59:07.832Z,1.60
2023-11-26T08:04:10.964Z,1.40
2023-11-26T08:09:15.611Z,1.60
2023-11-26T08:14:20.110Z,1.40
2023-11-26T08:19:24.706Z,1.50
2023-11-26T08:24:30.199Z,1.30
2023-11-26T08:29:33.003Z,1.90
2023-11-26T08:34:42.638Z,1.60
2023-11-26T08:39:47.217Z,1.30
2023-11-26T08:44:52.576Z,1.70
2023-11-26T08:49:58.008Z,2.00
2023-11-26T08:55:01.665Z,1.20
2023-11-26T09:00:05.029Z,2.30
2023-11-26T09:05:11.520Z,3.00
2023-11-26T09:10:15.692Z,3.50
2023-11-26T09:15:18.539Z,3.50
2023-11-26T09:20:21.419Z,8.70
2023-11-26T09:25:24.256Z,5.30
2023-11-26T09:30:27.002Z,3.80
2023-11-26T09:35:30.061Z,3.10
2023-11-26T09:40:32.901Z,3.00
2023-11-26T09:45:35.803Z,2.60
2023-11-26T09:50:40.056Z,3.10
2023-11-26T09:55:43.553Z,2.50
2023-11-26T10:00:46.405Z,2.70
2023-11-26T10:05:49.462Z,2.40
2023-11-26T10:10:52.274Z,2.80
2023-11-26T10:15:55.090Z,2.20
2023-11-26T10:21:04.612Z,3.50
2023-11-26T10:26:24.883Z,3.90
2023-11-26T10:31:27.824Z,2.60
2023-11-26T10:36:34.575Z,2.40
2023-11-26T10:41:38.353Z,3.40
2023-11-26T10:46:49.590Z,3.20
2023-11-26T10:52:11.656Z,3.30
2023-11-26T10:57:18.506Z,3.40
2023-11-26T11:02:22.116Z,3.70
2023-11-26T11:07:25.185Z,3.60
2023-11-26T11:12:40.202Z,4.00
2023-11-26T11:17:44.000Z,3.70
2023-11-26T11:22:47.838Z,5.70
2023-11-26T11:27:51.503Z,5.00
2023-11-26T11:33:04.915Z,12.00
2023-11-26T11:38:10.764Z,6.50
2023-11-26T11:43:17.053Z,6.00
2023-11-26T11:53:41.277Z,5.60
2023-11-26T11:58:44.185Z,5.20
2023-11-26T12:03:48.019Z,6.70
2023-11-26T12:09:11.527Z,7.10
2023-11-26T12:14:27.098Z,7.10
2023-11-26T12:19:39.248Z,5.30
2023-11-26T12:24:41.991Z,6.30
2023-11-26T12:29:46.304Z,4.60
2023-11-26T12:34:50.491Z,4.50
2023-11-26T12:39:54.146Z,3.50
2023-11-26T12:44:58.444Z,5.00
2023-11-26T12:50:03.138Z,5.50
2023-11-26T12:55:08.724Z,5.80
2023-11-26T13:00:13.254Z,5.10
2023-11-26T13:05:30.433Z,4.20
2023-11-26T13:10:58.821Z,3.20
2023-11-26T13:16:05.171Z,4.30
2023-11-26T13:26:11.376Z,4.10
2023-11-26T13:31:14.445Z,3.00
2023-11-26T13:36:17.741Z,4.60
2023-11-26T13:41:21.914Z,4.50
2023-11-26T13:46:25.866Z,6.10
2023-11-26T13:51:28.831Z,3.70
2023-11-26T13:56:31.632Z,5.30
2023-11-26T14:01:34.591Z,5.70
2023-11-26T14:06:37.601Z,4.20
2023-11-26T14:11:40.357Z,4.00
2023-11-26T14:16:43.958Z,3.90
2023-11-26T14:21:46.837Z,4.20
2023-11-26T14:26:49.699Z,5.20
2023-11-26T14:31:52.445Z,5.80
2023-11-26T14:36:55.316Z,3.30
2023-11-26T14:41:58.051Z,5.10
2023-11-26T14:47:01.099Z,5.90
2023-11-26T14:52:09.669Z,4.10
2023-11-26T14:57:12.458Z,5.80
2023-11-26T15:02:19.195Z,6.40
2023-11-26T15:07:22.368Z,5.50
2023-11-26T15:12:26.284Z,9.00
2023-11-26T15:17:29.629Z,6.40
2023-11-26T15:22:33.474Z,3.80
2023-11-26T15:27:36.221Z,3.90
2023-11-26T15:32:40.950Z,6.00
2023-11-26T15:37:43.978Z,13.30
2023-11-26T15:42:46.765Z,9.10
2023-11-26T15:47:53.131Z,13.20
2023-11-26T15:52:56.017Z,12.70
2023-11-26T15:57:59.639Z,4.90
2023-11-26T16:03:03.945Z,5.40
2023-11-26T16:08:09.533Z,4.70
2023-11-26T16:13:12.394Z,4.30
2023-11-26T16:18:16.350Z,4.90
2023-11-26T16:23:19.159Z,4.30
2023-11-26T16:28:22.122Z,3.50
2023-11-26T16:33:50.861Z,9.30
2023-11-26T16:38:54.090Z,4.90
2023-11-26T16:43:56.913Z,7.10
2023-11-26T16:49:00.829Z,4.40
2023-11-26T16:54:03.877Z,6.70
2023-11-26T16:59:06.589Z,5.10
2023-11-26T17:04:09.427Z,3.70
2023-11-26T17:09:13.135Z,5.50
2023-11-26T17:14:15.942Z,4.60
2023-11-26T17:19:19.025Z,5.50
2023-11-26T17:24:21.891Z,6.40
2023-11-26T17:29:24.676Z,6.30
2023-11-26T17:34:28.544Z,7.40
2023-11-26T17:39:31.296Z,4.00
2023-11-26T17:44:34.187Z,7.20
2023-11-26T17:49:41.343Z,5.20
2023-11-26T17:54:44.300Z,7.50
2023-11-26T17:59:47.049Z,4.50
2023-11-26T18:04:50.969Z,5.80
2023-11-26T18:09:53.850Z,7.50
2023-11-26T18:14:57.645Z,4.30
2023-11-26T18:20:01.060Z,6.00
2023-11-26T18:25:05.974Z,7.20
2023-11-26T18:30:10.304Z,4.90
2023-11-26T18:35:14.023Z,6.60
2023-11-26T18:40:17.045Z,7.00
2023-11-26T18:45:20.409Z,6.40
2023-11-26T18:50:23.279Z,4.70
2023-11-26T18:55:26.077Z,5.90
2023-11-26T19:00:28.777Z,5.40
2023-11-26T19:05:32.192Z,4.60
2023-11-26T19:10:34.989Z,4.90
2023-11-26T19:15:37.897Z,4.30
2023-11-26T19:20:40.708Z,5.50
2023-11-26T19:25:43.459Z,5.00
2023-11-26T19:30:46.283Z,4.30
2023-11-26T19:35:51.212Z,5.50
2023-11-26T19:40:54.130Z,4.80
2023-11-26T19:45:56.951Z,3.30
2023-11-26T19:51:00.179Z,5.40
2023-11-26T19:56:03.338Z,3.80
2023-11-26T20:01:08.807Z,4.50
2023-11-26T20:06:12.999Z,6.60
2023-11-26T20:11:16.146Z,5.70
2023-11-26T20:16:25.478Z,4.40
2023-11-26T20:21:30.695Z,5.40
2023-11-26T20:26:33.737Z,5.20
2023-11-26T20:31:36.562Z,6.30
2023-11-26T20:36:39.388Z,6.70
2023-11-26T20:41:42.293Z,5.00
2023-11-26T20:46:47.041Z,5.90
2023-11-26T20:51:51.464Z,6.40
2023-11-26T20:56:54.603Z,4.70
2023-11-26T21:01:57.403Z,5.60
2023-11-26T21:07:00.321Z,6.40
2023-11-26T21:12:03.272Z,6.70
2023-11-26T21:17:06.375Z,6.70
2023-11-26T21:22:09.327Z,6.70
2023-11-26T21:27:12.177Z,5.70
2023-11-26T21:32:17.122Z,4.90
2023-11-26T21:37:21.474Z,7.50
2023-11-26T21:42:24.859Z,7.40
2023-11-26T21:47:27.701Z,5.60
2023-11-26T21:52:31.194Z,7.00
2023-11-26T21:57:34.092Z,8.60
2023-11-26T22:02:36.975Z,21.10
2023-11-26T22:07:39.888Z,35.20
2023-11-26T22:12:42.892Z,18.40
2023-11-26T22:17:46.275Z,11.40
2023-11-26T22:22:49.137Z,4.60
2023-11-26T22:27:52.031Z,4.20
2023-11-26T22:32:54.968Z,3.40
2023-11-26T22:37:57.844Z,4.30
2023-11-26T22:43:00.651Z,3.50
2023-11-26T22:48:04.523Z,4.10
2023-11-26T22:53:07.397Z,4.00
2023-11-26T22:58:10.135Z,5.50
2023-11-26T23:03:13.191Z,4.50
2023-11-26T23:08:16.782Z,4.50
2023-11-26T23:13:22.950Z,3.30
2023-11-26T23:18:26.780Z,4.00
2023-11-26T23:23:38.367Z,3.50
2023-11-26T23:28:49.962Z,4.30
2023-11-26T23:33:52.844Z,3.90
2023-11-26T23:38:56.070Z,4.20
2023-11-26T23:43:59.053Z,3.40
2023-11-26T23:49:01.983Z,3.60
2023-11-26T23:54:05.532Z,4.40
2023-11-26T23:59:08.406Z,5.10
